Time;durP1;ratioP1;P1;durP2;ratioP2;P2;SDS_P1;SDS_P2;PMS_P1;PMS_P2;Temp;Humidity;BMP_temperature;BMP_pressure;BME280_temperature;BME280_humidity;BME280_pressure;Samples;Min_cycle;Max_cycle;Signal;HPM_P1;HPM_P2
2022/04/23 00:00:17;;;;;;;;;;;;;;;11.42;100.00;100650.50;2613705;31;20034;-56
2022/04/23 00:02:48;;;;;;;;;;;;;;;11.30;100.00;100647.13;2614259;36;19985;-54
2022/04/23 00:05:17;;;;;;;;;;;;;;;11.30;100.00;100640.91;2614355;36;19957;-51
2022/04/23 00:07:45;;;;;;;;;;;;;;;11.22;100.00;100642.47;2615094;36;20521;-56
2022/04/23 00:10:12;;;;;;;;;;;;;;;11.28;100.00;100643.75;2615589;36;19942;-58
2022/04/23 00:12:42;;;;;;;;;;;;;;;11.28;100.00;100643.75;2615319;31;20042;-58
2022/04/23 00:15:11;;;;;;;;;;;;;;;11.28;100.00;100646.44;2614776;36;19950;-53
2022/04/23 00:17:47;;;;;;;;;;;;;;;11.26;100.00;100652.97;2615669;36;20255;-55
2022/04/23 00:20:18;;;;;;;;;;;;;;;11.26;100.00;100642.19;2614042;31;19947;-54
2022/04/23 00:22:46;;;;;;;;;;;;;;;11.16;100.00;100647.56;2614685;36;19946;-55
2022/04/23 00:25:14;;;;;;;;;;;;;;;11.13;100.00;100640.66;2613365;36;20464;-58
2022/04/23 00:27:42;;;;;;;;;;;;;;;11.20;100.00;100639.09;2614122;31;19968;-55
2022/04/23 00:30:11;;;;;;;;;;;;;;;11.14;100.00;100645.03;2615055;36;20458;-58
2022/04/23 00:32:39;;;;;;;;;;;;;;;11.19;100.00;100642.78;2614398;36;19950;-55
2022/04/23 00:35:07;;;;;;;;;;;;;;;11.10;100.00;100640.94;2612946;36;20459;-53
2022/04/23 00:37:38;;;;;;;;;;;;;;;10.93;100.00;100642.53;2615241;36;19950;-52
2022/04/23 00:40:07;;;;;;;;;;;;;;;10.96;100.00;100644.09;2615154;31;19938;-54
2022/04/23 00:42:46;;;;;;;;;;;;;;;11.06;100.00;100642.22;2616046;31;19958;-55
2022/04/23 00:45:14;;;;;;;;;;;;;;;10.92;100.00;100637.28;2615501;36;19981;-52
2022/04/23 00:47:42;;;;;;;;;;;;;;;10.91;100.00;100643.66;2615136;36;19942;-54
2022/04/23 00:50:11;;;;;;;;;;;;;;;10.87;100.00;100632.34;2614810;36;20029;-53
2022/04/23 00:52:42;;;;;;;;;;;;;;;10.80;100.00;100644.66;2616054;31;20764;-50
2022/04/23 00:55:11;;;;;;;;;;;;;;;10.81;100.00;100636.44;2615789;36;19942;-55
2022/04/23 00:57:39;;;;;;;;;;;;;;;10.73;100.00;100641.69;2616307;31;20464;-55
2022/04/23 01:00:09;;;;;;;;;;;;;;;10.76;100.00;100637.88;2602872;36;19950;-56
2022/04/23 01:02:38;;;;;;;;;;;;;;;10.74;100.00;100639.88;2615881;36;19961;-53
2022/04/23 01:05:09;;;;;;;;;;;;;;;10.72;100.00;100639.13;2614322;36;20443;-56
2022/04/23 01:07:38;;;;;;;;;;;;;;;10.65;100.00;100645.09;2615401;31;19946;-57
2022/04/23 01:10:09;;;;;;;;;;;;;;;10.65;100.00;100637.03;2614399;36;19954;-55
2022/04/23 01:12:38;;;;;;;;;;;;;;;10.67;100.00;100636.88;2633579;36;20030;-54
2022/04/23 01:15:07;;;;;;;;;;;;;;;10.68;100.00;100638.59;2614013;31;19966;-54
2022/04/23 01:17:35;;;;;;;;;;;;;;;10.71;100.00;100635.59;2614145;36;20455;-55
2022/04/23 01:20:10;;;;;;;;;;;;;;;10.55;100.00;100633.47;2614205;36;20041;-58
2022/04/23 01:22:39;;;;;;;;;;;;;;;10.60;100.00;100627.66;2608905;36;20440;-55
2022/04/23 01:25:08;;;;;;;;;;;;;;;10.54;100.00;100642.56;2614943;36;19950;-56
2022/04/23 01:27:37;;;;;;;;;;;;;;;10.47;100.00;100633.34;2614661;31;19954;-54
2022/04/23 01:30:06;;;;;;;;;;;;;;;10.51;100.00;100627.53;2614707;31;19979;-56
2022/04/23 01:32:34;;;;;;;;;;;;;;;10.56;100.00;100634.34;2615020;36;19957;-54
2022/04/23 01:35:04;;;;;;;;;;;;;;;10.54;100.00;100629.09;2614226;36;20034;-57
2022/04/23 01:37:34;;;;;;;;;;;;;;;10.54;100.00;100634.50;2614949;36;20390;-55
2022/04/23 01:40:02;;;;;;;;;;;;;;;10.51;100.00;100640.13;2615016;36;21117;-55
2022/04/23 01:42:30;;;;;;;;;;;;;;;10.61;100.00;100632.91;2615266;36;20018;-52
2022/04/23 01:44:58;;;;;;;;;;;;;;;10.59;100.00;100634.06;2615104;36;20034;-52
2022/04/23 01:47:26;;;;;;;;;;;;;;;10.56;100.00;100632.50;2615453;36;19994;-55
2022/04/23 01:49:54;;;;;;;;;;;;;;;10.54;100.00;100636.31;2614827;36;20533;-54
2022/04/23 01:52:22;;;;;;;;;;;;;;;10.73;100.00;100633.59;2616040;31;20420;-52
2022/04/23 01:54:53;;;;;;;;;;;;;;;10.71;100.00;100637.47;2614957;36;19953;-48
2022/04/23 01:57:21;;;;;;;;;;;;;;;10.75;100.00;100628.94;2614869;31;19991;-58
2022/04/23 01:59:52;;;;;;;;;;;;;;;10.79;100.00;100651.91;2614758;54;20435;-57
2022/04/23 02:02:22;;;;;;;;;;;;;;;10.78;100.00;100638.59;2614844;36;20030;-56
2022/04/23 02:04:50;;;;;;;;;;;;;;;10.89;100.00;100641.09;2614363;36;20495;-55
2022/04/23 02:07:18;;;;;;;;;;;;;;;10.92;100.00;100635.44;2615067;36;19942;-54
2022/04/23 02:09:46;;;;;;;;;;;;;;;10.97;100.00;100645.81;2614128;36;19988;-53
2022/04/23 02:12:17;;;;;;;;;;;;;;;10.87;100.00;100637.72;2614869;36;20083;-58
2022/04/23 02:14:45;;;;;;;;;;;;;;;10.79;100.00;100640.28;2616374;36;20079;-56
2022/04/23 02:17:13;;;;;;;;;;;;;;;10.83;100.00;100642.53;2615773;36;19942;-55
2022/04/23 02:19:41;;;;;;;;;;;;;;;10.82;100.00;100634.59;2616448;31;20476;-52
2022/04/23 02:22:09;;;;;;;;;;;;;;;10.80;100.00;100629.34;2616074;36;19982;-56
2022/04/23 02:24:37;;;;;;;;;;;;;;;10.68;100.00;100633.19;2616163;36;19973;-56
2022/04/23 02:27:06;;;;;;;;;;;;;;;10.60;100.00;100633.03;2616293;36;20025;-55
2022/04/23 02:29:37;;;;;;;;;;;;;;;10.55;100.00;100627.25;2616489;36;19962;-57
2022/04/23 02:32:05;;;;;;;;;;;;;;;10.52;100.00;100629.22;2614923;31;20079;-58
2022/04/23 02:34:34;;;;;;;;;;;;;;;10.48;100.00;100633.22;2615486;36;20041;-55
2022/04/23 02:37:02;;;;;;;;;;;;;;;10.43;100.00;100632.78;2615455;36;19973;-56
2022/04/23 02:39:30;;;;;;;;;;;;;;;10.31;100.00;100621.25;2615152;36;19947;-55
2022/04/23 02:41:58;;;;;;;;;;;;;;;10.22;100.00;100637.38;2615185;36;19951;-52
2022/04/23 02:44:26;;;;;;;;;;;;;;;10.14;100.00;100647.03;2615644;36;19950;-51
2022/04/23 02:46:57;;;;;;;;;;;;;;;10.04;100.00;100643.47;2615482;36;20006;-55
2022/04/23 02:49:25;;;;;;;;;;;;;;;10.04;100.00;100648.84;2616392;36;19951;-59
2022/04/23 02:51:53;;;;;;;;;;;;;;;9.90;100.00;100647.38;2615560;36;19969;-57
2022/04/23 02:54:21;;;;;;;;;;;;;;;9.93;100.00;100646.25;2615681;36;19954;-55
2022/04/23 02:56:50;;;;;;;;;;;;;;;9.99;100.00;100649.22;2615473;36;20446;-56
2022/04/23 02:59:18;;;;;;;;;;;;;;;9.88;100.00;100646.66;2616268;36;19942;-56
2022/04/23 03:01:46;;;;;;;;;;;;;;;9.88;100.00;100648.47;2615289;36;19985;-52
2022/04/23 03:04:17;;;;;;;;;;;;;;;9.86;100.00;100647.78;2615474;36;19950;-54
2022/04/23 03:06:45;;;;;;;;;;;;;;;9.82;100.00;100648.06;2615287;36;19971;-55
2022/04/23 03:09:13;;;;;;;;;;;;;;;9.71;100.00;100647.31;2614546;36;19954;-51
2022/04/23 03:11:41;;;;;;;;;;;;;;;9.70;100.00;100649.16;2615380;36;20362;-56
2022/04/23 03:14:10;;;;;;;;;;;;;;;9.69;100.00;100650.13;2615643;31;20032;-57
2022/04/23 03:16:38;;;;;;;;;;;;;;;9.65;100.00;100651.38;2616081;36;20385;-51
2022/04/23 03:19:06;;;;;;;;;;;;;;;9.60;100.00;100653.63;2616549;31;20473;-53
2022/04/23 03:21:37;;;;;;;;;;;;;;;9.63;100.00;100654.22;2616012;36;19954;-53
2022/04/23 03:24:05;;;;;;;;;;;;;;;9.68;100.00;100653.78;2607710;31;19950;-55
2022/04/23 03:26:33;;;;;;;;;;;;;;;9.64;100.00;100653.22;2615453;36;19942;-57
2022/04/23 03:29:03;;;;;;;;;;;;;;;9.64;100.00;100652.34;2615420;36;19954;-54
2022/04/23 03:31:31;;;;;;;;;;;;;;;9.56;100.00;100652.19;2615994;36;20070;-55
2022/04/23 03:33:59;;;;;;;;;;;;;;;9.61;100.00;100649.94;2615561;31;20538;-53
2022/04/23 03:36:27;;;;;;;;;;;;;;;9.51;100.00;100649.06;2615684;36;20475;-56
2022/04/23 03:38:58;;;;;;;;;;;;;;;9.46;100.00;100639.56;2615441;36;20002;-57
2022/04/23 03:41:26;;;;;;;;;;;;;;;9.48;100.00;100644.78;2615592;36;20017;-57
2022/04/23 03:43:55;;;;;;;;;;;;;;;9.40;100.00;100653.53;2615114;36;19946;-53
2022/04/23 03:46:23;;;;;;;;;;;;;;;9.45;100.00;100651.31;2616093;36;19951;-55
2022/04/23 03:48:51;;;;;;;;;;;;;;;9.44;100.00;100652.28;2615380;36;20455;-55
2022/04/23 03:51:19;;;;;;;;;;;;;;;9.43;100.00;100655.94;2616192;36;19983;-53
2022/04/23 03:53:47;;;;;;;;;;;;;;;9.35;100.00;100645.03;2615466;31;19947;-57
2022/04/23 03:56:18;;;;;;;;;;;;;;;9.42;100.00;100651.56;2662644;36;20041;-50
2022/04/23 03:58:46;;;;;;;;;;;;;;;9.35;100.00;100660.28;2615111;36;19957;-55
2022/04/23 04:01:14;;;;;;;;;;;;;;;9.33;100.00;100660.41;2615488;31;19950;-55
2022/04/23 04:03:43;;;;;;;;;;;;;;;9.40;100.00;100661.59;2614479;36;19958;-55
2022/04/23 04:06:11;;;;;;;;;;;;;;;9.40;100.00;100658.91;2615576;36;19943;-57
2022/04/23 04:08:39;;;;;;;;;;;;;;;9.40;100.00;100658.06;2614607;36;19981;-54
2022/04/23 04:11:07;;;;;;;;;;;;;;;9.41;100.00;100665.16;2614739;31;20038;-56
2022/04/23 04:13:38;;;;;;;;;;;;;;;9.45;100.00;100658.50;2614749;36;20062;-53
2022/04/23 04:16:06;;;;;;;;;;;;;;;9.33;100.00;100651.50;2615340;36;20595;-55
2022/04/23 04:18:35;;;;;;;;;;;;;;;9.32;100.00;100653.38;2615247;36;20550;-56
2022/04/23 04:21:06;;;;;;;;;;;;;;;9.32;100.00;100652.50;2615613;36;20499;-55
2022/04/23 04:23:34;;;;;;;;;;;;;;;9.38;100.00;100644.75;2615461;36;20498;-53
2022/04/23 04:26:02;;;;;;;;;;;;;;;9.43;100.00;100642.50;2615480;36;19950;-55
2022/04/23 04:28:32;;;;;;;;;;;;;;;9.47;100.00;100643.94;2615502;36;19939;-54
2022/04/23 04:33:43;;;;;;;;;;;;;;;9.48;100.00;100644.78;2614804;36;19962;-56
2022/04/23 04:36:11;;;;;;;;;;;;;;;9.53;100.00;100647.94;2615611;36;19973;-55
2022/04/23 04:38:39;;;;;;;;;;;;;;;9.56;100.00;100642.28;2615565;36;19958;-57
2022/04/23 04:41:07;;;;;;;;;;;;;;;9.58;100.00;100644.84;2614713;36;19950;-57
2022/04/23 04:43:36;;;;;;;;;;;;;;;9.59;100.00;100636.66;2615113;36;20083;-58
2022/04/23 04:46:06;;;;;;;;;;;;;;;9.58;100.00;100640.31;2615635;36;19939;-55
2022/04/23 04:48:34;;;;;;;;;;;;;;;9.61;100.00;100639.19;2614953;31;19950;-54
2022/04/23 04:51:02;;;;;;;;;;;;;;;9.58;100.00;100639.47;2615950;36;19963;-52
2022/04/23 04:53:30;;;;;;;;;;;;;;;9.51;100.00;100633.81;2615211;36;20001;-57
2022/04/23 04:56:00;;;;;;;;;;;;;;;9.46;100.00;100639.56;2615319;36;19965;-54
2022/04/23 04:58:31;;;;;;;;;;;;;;;9.55;100.00;100642.44;2615055;36;19988;-57
2022/04/23 05:00:59;;;;;;;;;;;;;;;9.54;100.00;100644.28;2613925;36;20049;-54
2022/04/23 05:03:30;;;;;;;;;;;;;;;9.39;100.00;100640.22;2614863;36;20037;-55
2022/04/23 05:05:58;;;;;;;;;;;;;;;9.52;100.00;100640.84;2615480;36;19957;-54
2022/04/23 05:08:26;;;;;;;;;;;;;;;9.61;100.00;100644.56;2615442;36;20002;-54
2022/04/23 05:10:54;;;;;;;;;;;;;;;9.56;100.00;100649.50;2614729;36;20041;-58
2022/04/23 05:13:22;;;;;;;;;;;;;;;9.70;100.00;100642.91;2615773;36;20066;-56
2022/04/23 05:15:51;;;;;;;;;;;;;;;9.64;100.00;100649.69;2613738;36;20103;-52
2022/04/23 05:18:19;;;;;;;;;;;;;;;9.69;100.00;100650.13;2615225;36;19966;-57
2022/04/23 05:20:50;;;;;;;;;;;;;;;9.81;100.00;100650.88;2614944;36;19954;-55
2022/04/23 05:23:18;;;;;;;;;;;;;;;9.71;100.00;100645.47;2615073;36;20603;-54
2022/04/23 05:25:46;;;;;;;;;;;;;;;9.78;100.00;100649.31;2613376;36;20042;-55
2022/04/23 05:28:14;;;;;;;;;;;;;;;9.86;100.00;100643.25;2605824;31;19978;-56
2022/04/23 05:30:43;;;;;;;;;;;;;;;9.91;100.00;100653.59;2612034;36;20042;-54
2022/04/23 05:33:12;;;;;;;;;;;;;;;9.95;100.00;100650.50;2614008;36;19935;-53
2022/04/23 05:35:40;;;;;;;;;;;;;;;9.97;100.00;100650.38;2612726;36;20037;-56
2022/04/23 05:38:10;;;;;;;;;;;;;;;10.06;100.00;100646.00;2613673;36;20070;-56
2022/04/23 05:40:38;;;;;;;;;;;;;;;10.07;100.00;100639.63;2614282;36;20432;-54
2022/04/23 05:43:06;;;;;;;;;;;;;;;10.15;100.00;100637.94;2613066;31;20070;-55
2022/04/23 05:45:34;;;;;;;;;;;;;;;10.22;100.00;100638.25;2613340;36;19981;-56
2022/04/23 05:48:02;;;;;;;;;;;;;;;10.13;100.00;100642.63;2615513;31;20413;-54
2022/04/23 05:50:34;;;;;;;;;;;;;;;10.18;100.00;100632.28;2612731;36;19998;-56
2022/04/23 05:53:02;;;;;;;;;;;;;;;10.29;100.00;100634.00;2612959;36;20067;-53
2022/04/23 05:55:32;;;;;;;;;;;;;;;10.26;100.00;100644.19;2614758;31;20034;-55
2022/04/23 05:58:00;;;;;;;;;;;;;;;10.42;100.00;100630.22;2614466;36;20018;-55
2022/04/23 06:00:28;;;;;;;;;;;;;;;10.44;100.00;100637.16;2614992;36;19957;-53
2022/04/23 06:02:56;;;;;;;;;;;;;;;10.56;100.00;100639.72;2615099;36;19969;-56
2022/04/23 06:05:24;;;;;;;;;;;;;;;10.52;100.00;100645.38;2615488;36;20030;-54
2022/04/23 06:07:52;;;;;;;;;;;;;;;10.60;100.00;100643.81;2615000;36;20050;-55
2022/04/23 06:10:20;;;;;;;;;;;;;;;10.61;100.00;100640.97;2614959;36;20458;-55
2022/04/23 06:12:51;;;;;;;;;;;;;;;10.64;100.00;100632.63;2614846;31;20532;-55
2022/04/23 06:15:19;;;;;;;;;;;;;;;10.86;100.00;100641.41;2614911;36;19951;-56
2022/04/23 06:17:47;;;;;;;;;;;;;;;11.08;100.00;100624.06;2615073;36;20025;-56
2022/04/23 06:20:16;;;;;;;;;;;;;;;11.24;100.00;100646.88;2615396;36;19951;-55
2022/04/23 06:22:44;;;;;;;;;;;;;;;11.42;100.00;100628.94;2615183;36;20451;-54
2022/04/23 06:25:12;;;;;;;;;;;;;;;11.30;100.00;100632.81;2615414;36;19945;-57
2022/04/23 06:27:40;;;;;;;;;;;;;;;11.40;100.00;100628.25;2614929;31;19939;-55
2022/04/23 06:30:11;;;;;;;;;;;;;;;11.35;100.00;100630.50;2615303;31;20086;-57
2022/04/23 06:32:39;;;;;;;;;;;;;;;11.49;100.00;100632.75;2615074;31;20439;-54
2022/04/23 06:35:08;;;;;;;;;;;;;;;11.50;100.00;100628.22;2614961;36;20042;-57
2022/04/23 06:37:40;;;;;;;;;;;;;;;11.70;100.00;100637.06;2615530;36;19985;-58
2022/04/23 06:40:10;;;;;;;;;;;;;;;11.80;100.00;100626.22;2613558;36;19958;-55
2022/04/23 06:42:38;;;;;;;;;;;;;;;11.86;100.00;100628.31;2615364;36;20451;-56
2022/04/23 06:45:07;;;;;;;;;;;;;;;11.80;100.00;100629.75;2614736;36;19998;-57
2022/04/23 06:47:37;;;;;;;;;;;;;;;11.91;100.00;100626.88;2614987;36;19985;-57
2022/04/23 06:50:06;;;;;;;;;;;;;;;12.00;100.00;100626.97;2615237;36;20056;-54
2022/04/23 06:52:34;;;;;;;;;;;;;;;11.96;100.00;100629.16;2615338;36;20380;-57
2022/04/23 06:55:02;;;;;;;;;;;;;;;12.20;100.00;100620.47;2614551;36;19997;-57
2022/04/23 06:57:30;;;;;;;;;;;;;;;12.19;100.00;100616.09;2614085;36;20022;-54
2022/04/23 07:00:01;;;;;;;;;;;;;;;12.35;100.00;100628.03;2615460;36;19963;-52
2022/04/23 07:02:29;;;;;;;;;;;;;;;12.35;100.00;100622.63;2615096;31;19946;-60
2022/04/23 07:05:01;;;;;;;;;;;;;;;12.41;100.00;100617.50;2615731;36;19951;-55
2022/04/23 07:07:30;;;;;;;;;;;;;;;12.66;100.00;100625.81;2615168;36;20313;-57
2022/04/23 07:10:01;;;;;;;;;;;;;;;12.80;100.00;100622.53;2613398;36;20053;-54
2022/04/23 07:12:29;;;;;;;;;;;;;;;12.56;100.00;100627.75;2616392;31;20455;-55
2022/04/23 07:14:57;;;;;;;;;;;;;;;12.57;100.00;100619.50;2615716;36;19955;-56
2022/04/23 07:17:28;;;;;;;;;;;;;;;12.21;100.00;100618.63;2615881;31;20542;-54
2022/04/23 07:19:56;;;;;;;;;;;;;;;12.38;100.00;100623.19;2615592;36;19939;-53
2022/04/23 07:22:27;;;;;;;;;;;;;;;12.57;100.00;100624.03;2615075;36;19953;-59
2022/04/23 07:24:55;;;;;;;;;;;;;;;12.86;100.00;100621.06;2616095;36;19955;-54
2022/04/23 07:27:23;;;;;;;;;;;;;;;12.85;100.00;100619.38;2615984;31;20415;-56
2022/04/23 07:29:52;;;;;;;;;;;;;;;12.95;100.00;100624.69;2615093;36;19945;-56
2022/04/23 07:32:21;;;;;;;;;;;;;;;12.97;100.00;100618.13;2614795;36;19954;-55
2022/04/23 07:37:33;;;;;;;;;;;;;;;13.08;100.00;100626.97;2615185;36;19945;-57
2022/04/23 07:40:05;;;;;;;;;;;;;;;13.31;100.00;100614.63;2615957;36;20431;-52
2022/04/23 07:42:33;;;;;;;;;;;;;;;13.38;100.00;100611.31;2616270;36;19981;-53
2022/04/23 07:45:01;;;;;;;;;;;;;;;13.42;100.00;100615.38;2616106;36;20000;-58
2022/04/23 07:47:30;;;;;;;;;;;;;;;13.46;100.00;100616.78;2615157;31;19954;-57
2022/04/23 07:49:59;;;;;;;;;;;;;;;13.25;100.00;100603.59;2615411;36;20576;-58
2022/04/23 07:52:28;;;;;;;;;;;;;;;13.18;100.00;100603.41;2615819;36;20370;-57
2022/04/23 07:54:58;;;;;;;;;;;;;;;13.18;100.00;100598.00;2615768;36;19973;-56
2022/04/23 07:57:26;;;;;;;;;;;;;;;13.41;100.00;100597.47;2615777;36;19994;-58
2022/04/23 07:59:55;;;;;;;;;;;;;;;13.36;100.00;100600.66;2615732;36;20013;-57
2022/04/23 08:02:23;;;;;;;;;;;;;;;13.59;100.00;100611.75;2615414;36;20041;-57
2022/04/23 08:04:51;;;;;;;;;;;;;;;13.74;100.00;100616.56;2614376;36;20049;-48
2022/04/23 08:07:19;;;;;;;;;;;;;;;13.77;100.00;100600.00;2615010;36;20011;-54
2022/04/23 08:09:47;;;;;;;;;;;;;;;14.02;100.00;100595.50;2615586;36;19954;-57
2022/04/23 08:12:18;;;;;;;;;;;;;;;13.94;100.00;100598.19;2614568;36;19993;-59
2022/04/23 08:14:46;;;;;;;;;;;;;;;14.07;100.00;100586.91;2615700;36;19986;-57
2022/04/23 08:17:14;;;;;;;;;;;;;;;14.25;100.00;100586.75;2615526;36;20418;-56
2022/04/23 08:19:42;;;;;;;;;;;;;;;14.25;100.00;100584.91;2615625;36;20034;-56
2022/04/23 08:22:10;;;;;;;;;;;;;;;14.44;100.00;100580.19;2615253;36;20030;-57
2022/04/23 08:24:39;;;;;;;;;;;;;;;14.04;100.00;100581.81;2616056;36;19943;-59
2022/04/23 08:27:07;;;;;;;;;;;;;;;13.88;100.00;100588.88;2615651;36;19954;-56
2022/04/23 08:32:18;;;;;;;;;;;;;;;14.06;100.00;100579.78;2615042;36;19951;-56
2022/04/23 08:34:46;;;;;;;;;;;;;;;13.89;100.00;100581.63;2615369;36;20001;-57
2022/04/23 08:37:14;;;;;;;;;;;;;;;14.14;100.00;100590.63;2615744;36;19950;-60
2022/04/23 08:39:45;;;;;;;;;;;;;;;14.14;100.00;100577.09;2615733;36;19951;-56
2022/04/23 08:42:13;;;;;;;;;;;;;;;14.44;100.00;100581.03;2614986;31;19946;-59
2022/04/23 08:44:44;;;;;;;;;;;;;;;14.59;100.00;100575.78;2615666;36;19938;-58
2022/04/23 08:47:13;;;;;;;;;;;;;;;14.77;100.00;100577.53;2615259;36;20021;-57
2022/04/23 08:49:42;;;;;;;;;;;;;;;14.81;100.00;100590.53;2616253;31;20452;-58
2022/04/23 08:52:12;;;;;;;;;;;;;;;14.69;100.00;100589.19;2615217;31;19958;-58
2022/04/23 08:54:41;;;;;;;;;;;;;;;15.01;100.00;100582.88;2616039;31;19951;-60
2022/04/23 08:57:11;;;;;;;;;;;;;;;14.74;100.00;100567.00;2615569;36;19997;-59
2022/04/23 08:59:39;;;;;;;;;;;;;;;14.80;100.00;100578.00;2615797;36;19973;-59
2022/04/23 09:02:14;;;;;;;;;;;;;;;15.10;100.00;100570.16;2615245;36;20571;-57
2022/04/23 09:04:42;;;;;;;;;;;;;;;15.25;100.00;100570.28;2615506;36;19943;-59
2022/04/23 09:07:19;;;;;;;;;;;;;;;15.22;100.00;100565.22;2615046;36;20444;-58
2022/04/23 09:09:49;;;;;;;;;;;;;;;15.42;100.00;100562.97;2615230;31;20542;-58
2022/04/23 09:12:17;;;;;;;;;;;;;;;15.58;100.00;100543.91;2615303;36;19942;-58
2022/04/23 09:14:45;;;;;;;;;;;;;;;15.80;100.00;100556.88;2614932;36;19963;-58
2022/04/23 09:25:31;;;;;;;;;;;;;;;16.03;100.00;100546.94;2614940;36;20426;-58
2022/04/23 09:28:14;;;;;;;;;;;;;;;16.46;100.00;100532.84;2615371;31;20001;-56
2022/04/23 09:30:42;;;;;;;;;;;;;;;16.15;100.00;100554.63;2615618;36;19963;-55
2022/04/23 09:33:13;;;;;;;;;;;;;;;16.27;100.00;100539.63;2616013;36;20500;-57
2022/04/23 09:35:54;;;;;;;;;;;;;;;16.75;100.00;100542.94;2615813;36;20487;-56
2022/04/23 09:38:22;;;;;;;;;;;;;;;16.77;100.00;100538.16;2614910;31;20371;-58
2022/04/23 09:40:51;;;;;;;;;;;;;;;16.69;100.00;100535.53;2614482;36;19957;-58
2022/04/23 09:43:26;;;;;;;;;;;;;;;17.03;100.00;100534.19;2614728;36;19947;-59
2022/04/23 09:46:04;;;;;;;;;;;;;;;16.93;100.00;100531.75;2613150;31;20515;-58
2022/04/23 09:48:35;;;;;;;;;;;;;;;17.08;100.00;100530.94;2615717;36;20038;-59
2022/04/23 09:51:03;;;;;;;;;;;;;;;17.07;100.00;100532.78;2614920;36;20463;-57
2022/04/23 09:53:31;;;;;;;;;;;;;;;17.02;98.69;100539.81;2614330;31;19946;-57
2022/04/23 09:56:04;;;;;;;;;;;;;;;16.87;97.79;100526.19;2615162;36;20374;-59
2022/04/23 09:58:33;;;;;;;;;;;;;;;16.82;100.00;100537.59;2614544;36;19946;-59
2022/04/23 10:01:02;;;;;;;;;;;;;;;17.10;93.41;100537.84;2614145;31;19945;-58
2022/04/23 10:03:32;;;;;;;;;;;;;;;17.35;100.00;100532.13;2613931;36;19955;-58
2022/04/23 10:06:04;;;;;;;;;;;;;;;17.43;90.91;100525.75;2613417;36;19954;-59
2022/04/23 10:08:33;;;;;;;;;;;;;;;17.64;85.39;100517.63;2612838;36;19946;-58
2022/04/23 10:11:02;;;;;;;;;;;;;;;17.47;89.17;100527.88;2614750;36;19958;-58
2022/04/23 10:13:31;;;;;;;;;;;;;;;17.55;91.00;100534.25;2615721;31;20041;-60
2022/04/23 10:16:02;;;;;;;;;;;;;;;17.74;86.19;100533.69;2613919;36;19946;-59
2022/04/23 10:18:31;;;;;;;;;;;;;;;17.69;83.99;100522.50;2611221;36;19946;-58
2022/04/23 10:21:07;;;;;;;;;;;;;;;17.90;85.89;100507.28;2612642;36;19950;-58
2022/04/23 10:23:46;;;;;;;;;;;;;;;18.12;89.42;100508.97;2611913;36;19951;-59
2022/04/23 10:26:32;;;;;;;;;;;;;;;18.37;77.30;100506.72;2612939;31;19939;-56
2022/04/23 10:29:00;;;;;;;;;;;;;;;18.64;83.53;100506.06;2614705;36;19970;-59
2022/04/23 10:31:28;;;;;;;;;;;;;;;18.79;77.13;100504.09;2615111;36;19958;-59
2022/04/23 10:33:56;;;;;;;;;;;;;;;18.35;75.44;100507.94;2617281;31;20442;-57
2022/04/23 10:36:24;;;;;;;;;;;;;;;18.22;75.27;100503.19;2614413;36;19961;-59
2022/04/23 10:39:15;;;;;;;;;;;;;;;18.14;85.76;100515.06;2616444;36;20347;-58
2022/04/23 10:41:43;;;;;;;;;;;;;;;18.70;75.13;100516.19;2614429;31;19951;-59
2022/04/23 10:44:12;;;;;;;;;;;;;;;18.81;74.86;100512.91;2614488;36;20307;-60
2022/04/23 10:46:47;;;;;;;;;;;;;;;18.88;73.16;100507.53;2614918;36;20502;-57
2022/04/23 10:49:15;;;;;;;;;;;;;;;19.14;78.74;100528.69;2616448;36;19939;-58
2022/04/23 10:51:47;;;;;;;;;;;;;;;18.78;69.44;100502.41;2613584;36;19946;-59
2022/04/23 10:54:19;;;;;;;;;;;;;;;18.12;75.09;100530.75;2615967;36;19938;-58
2022/04/23 10:56:54;;;;;;;;;;;;;;;18.46;75.92;100514.72;2614191;36;19950;-58
2022/04/23 10:59:38;;;;;;;;;;;;;;;18.79;72.78;100523.19;2613325;36;19977;-59
2022/04/23 11:02:08;;;;;;;;;;;;;;;18.69;75.06;100523.50;2615483;36;20370;-58
2022/04/23 11:12:14;;;;;;;;;;;;;;;18.66;74.18;100521.19;2615926;36;19951;-58
2022/04/23 11:13:29;;;;;;;;;;;;;;;19.20;68.61;100510.69;2615578;36;19945;-53
2022/04/23 11:16:10;;;;;;;;;;;;;;;18.95;71.77;100500.25;2615572;31;19950;-57
2022/04/23 11:18:39;;;;;;;;;;;;;;;19.21;70.40;100505.03;2615368;36;19955;-56
2022/04/23 11:21:08;;;;;;;;;;;;;;;19.42;71.17;100512.25;2615496;36;20367;-56
2022/04/23 11:23:37;;;;;;;;;;;;;;;19.45;67.10;100497.38;2615989;36;19950;-54
2022/04/23 11:26:11;;;;;;;;;;;;;;;19.29;66.13;100514.91;2616210;36;20463;-57
2022/04/23 11:28:40;;;;;;;;;;;;;;;19.46;67.34;100504.47;2616399;36;19950;-54
2022/04/23 11:31:15;;;;;;;;;;;;;;;19.29;68.49;100505.88;2615747;31;19946;-56
2022/04/23 11:33:56;;;;;;;;;;;;;;;19.52;63.92;100487.31;2616291;36;20315;-54
2022/04/23 11:36:27;;;;;;;;;;;;;;;18.97;71.21;100495.44;2615318;31;19993;-55
2022/04/23 11:38:55;;;;;;;;;;;;;;;18.73;70.91;100483.91;2616297;36;20002;-58
2022/04/23 11:41:38;;;;;;;;;;;;;;;19.18;71.58;100480.84;2615141;36;19938;-56
2022/04/23 11:44:15;;;;;;;;;;;;;;;19.36;72.73;100493.97;2616093;31;19958;-58
2022/04/23 11:46:44;;;;;;;;;;;;;;;19.49;71.65;100484.97;2616533;31;20439;-58
2022/04/23 11:49:12;;;;;;;;;;;;;;;19.33;74.09;100488.91;2615427;36;19946;-58
2022/04/23 11:51:42;;;;;;;;;;;;;;;19.44;76.20;100484.75;2616704;31;20419;-57
2022/04/23 11:54:10;;;;;;;;;;;;;;;19.83;68.96;100477.78;2615880;36;19976;-56
2022/04/23 11:56:41;;;;;;;;;;;;;;;20.07;67.50;100468.13;2615527;36;19950;-55
2022/04/23 11:59:12;;;;;;;;;;;;;;;19.94;70.64;100474.41;2616707;36;20030;-57
2022/04/23 12:01:41;;;;;;;;;;;;;;;19.21;69.92;100480.47;2616237;36;20001;-61
2022/04/23 12:04:09;;;;;;;;;;;;;;;19.03;72.49;100477.41;2615823;36;19949;-59
2022/04/23 12:06:44;;;;;;;;;;;;;;;19.11;76.50;100463.63;2615609;36;19950;-55
2022/04/23 12:09:13;;;;;;;;;;;;;;;19.56;70.48;100476.81;2616235;31;19947;-58
2022/04/23 12:11:43;;;;;;;;;;;;;;;19.85;70.07;100475.66;2615743;36;19973;-57
2022/04/23 12:14:11;;;;;;;;;;;;;;;20.01;66.85;100455.31;2616350;31;20364;-58
2022/04/23 12:16:41;;;;;;;;;;;;;;;19.33;65.22;100468.94;2615908;36;19950;-57
2022/04/23 12:19:12;;;;;;;;;;;;;;;19.56;66.57;100469.47;2615538;36;19989;-55
2022/04/23 12:21:41;;;;;;;;;;;;;;;20.01;75.33;100457.19;2615695;36;20458;-58
2022/04/23 12:24:12;;;;;;;;;;;;;;;20.33;65.51;100451.97;2616265;36;20001;-56
2022/04/23 12:26:40;;;;;;;;;;;;;;;20.11;71.54;100458.47;2615833;36;20456;-58
2022/04/23 12:42:42;;;;;;;;;;;;;;;19.37;60.37;100441.03;2613868;36;19994;-57
2022/04/23 12:45:20;;;;;;;;;;;;;;;19.55;62.49;100448.69;2615314;36;19943;-55
2022/04/23 12:47:48;;;;;;;;;;;;;;;19.60;71.87;100448.91;2615392;36;20470;-59
2022/04/23 12:50:27;;;;;;;;;;;;;;;19.41;77.78;100427.84;2616280;36;20460;-59
2022/04/23 12:52:55;;;;;;;;;;;;;;;19.99;73.33;100441.00;2615155;31;19946;-54
2022/04/23 12:55:25;;;;;;;;;;;;;;;20.00;62.37;100439.97;2615865;36;19939;-56
2022/04/23 12:57:53;;;;;;;;;;;;;;;19.80;65.25;100431.75;2615553;36;20037;-55
2022/04/23 13:00:25;;;;;;;;;;;;;;;19.42;67.30;100445.91;2615258;36;20049;-56
2022/04/23 13:02:57;;;;;;;;;;;;;;;19.61;71.45;100434.22;2615302;31;19946;-54
2022/04/23 13:05:27;;;;;;;;;;;;;;;19.53;70.44;100430.81;2615971;36;19946;-57
2022/04/23 13:10:35;;;;;;;;;;;;;;;19.00;63.27;100436.91;2614911;36;20446;-54
2022/04/23 13:13:05;;;;;;;;;;;;;;;19.64;64.55;100432.97;2615143;36;20585;-56
2022/04/23 13:15:36;;;;;;;;;;;;;;;19.22;63.50;100427.56;2615726;36;20021;-54
2022/04/23 13:18:04;;;;;;;;;;;;;;;19.65;61.46;100414.69;2615202;36;19981;-54
2022/04/23 13:20:32;;;;;;;;;;;;;;;19.64;64.98;100407.53;2614284;36;19986;-56